Terminal Aerodrome Forecast
Issued by NWS

Home | Current Version | Previous Version | Text Only | Print | Product List | Glossary On
Versions: 1 2 3 4 5 6 7 8 9 10 11 12 13 14 15 16 17 18 19 20 21 22 23
000
FTUS45 KSLC 190542
TAFOGD
TAF
KOGD 190542Z 1906/2006 17010KT P6SM SCT200
     FM190700 17013G20KT P6SM SCT100 BKN130
     FM191400 18015KT P6SM SCT050 BKN080
     FM191800 30011KT P6SM VCSH SCT040 OVC050
     FM192300 32011KT 6SM -RA BKN030 OVC050
     FM200100 33009KT 1SM -SN BR OVC008=

USA.gov is the U.S. government's official web portal to all federal, state and local government web resources and services.